Time;durP1;ratioP1;P1;durP2;ratioP2;P2;SDS_P1;SDS_P2;PMS_P1;PMS_P2;Temp;Humidity;BMP_temperature;BMP_pressure;BME280_temperature;BME280_humidity;BME280_pressure;Samples;Min_cycle;Max_cycle;Signal;HPM_P1;HPM_P2
2021/04/05 00:04:03;;;;;;;19.93;10.80;;;;;;;8.83;43.83;97642.81;8346331;28;20644;-83
2021/04/05 00:08:07;;;;;;;19.73;10.80;;;;;;;8.77;43.83;97633.56;8346625;28;20201;-82
2021/04/05 00:12:10;;;;;;;22.40;10.40;;;;;;;8.65;43.84;97628.94;8347548;28;20224;-82
2021/04/05 00:16:15;;;;;;;18.00;10.37;;;;;;;8.68;43.68;97632.25;8344975;28;20208;-82
2021/04/05 00:20:21;;;;;;;16.80;10.57;;;;;;;8.59;44.12;97624.88;8345413;28;20211;-82
2021/04/05 00:24:24;;;;;;;17.97;9.73;;;;;;;8.53;44.12;97617.38;8344924;28;20569;-83
2021/04/05 00:28:26;;;;;;;18.73;10.17;;;;;;;8.57;43.77;97614.59;8344098;28;20200;-82
2021/04/05 00:32:28;;;;;;;19.20;10.23;;;;;;;8.56;43.87;97605.16;8347079;28;20230;-83
2021/04/05 00:36:30;;;;;;;22.53;10.17;;;;;;;8.48;43.98;97589.19;8351179;28;20258;-84
2021/04/05 00:40:36;;;;;;;18.97;10.60;;;;;;;8.43;44.14;97588.53;8346848;28;20209;-84
2021/04/05 00:44:42;;;;;;;20.07;10.60;;;;;;;8.48;43.97;97584.00;8350682;28;20189;-84
2021/04/05 00:48:47;;;;;;;17.10;10.00;;;;;;;8.39;44.28;97574.88;8350165;28;20232;-83
2021/04/05 00:52:52;;;;;;;20.50;11.23;;;;;;;8.47;44.58;97576.34;8347633;28;20267;-84
2021/04/05 00:56:56;;;;;;;20.47;11.47;;;;;;;8.52;44.55;97564.91;8340411;28;20229;-84
2021/04/05 01:01:01;;;;;;;19.27;11.07;;;;;;;8.44;44.83;97553.25;8326856;28;20205;-84
2021/04/05 01:05:04;;;;;;;23.07;11.13;;;;;;;8.27;44.82;97541.84;8335495;28;20199;-84
2021/04/05 01:09:07;;;;;;;21.70;10.90;;;;;;;8.30;45.11;97549.47;8323946;28;20224;-83
2021/04/05 01:13:10;;;;;;;19.47;10.60;;;;;;;8.39;45.00;97543.91;8309707;28;20225;-83
2021/04/05 01:17:12;;;;;;;20.17;11.03;;;;;;;8.29;45.48;97526.31;8310388;28;20205;-83
2021/04/05 01:21:15;;;;;;;21.67;10.67;;;;;;;8.33;45.55;97513.22;8311168;28;20205;-83
2021/04/05 01:25:20;;;;;;;22.60;10.97;;;;;;;8.16;45.52;97506.19;8311355;28;20204;-83
2021/04/05 01:29:21;;;;;;;20.77;11.33;;;;;;;8.13;45.48;97487.41;8311457;28;20212;-83
2021/04/05 01:33:26;;;;;;;19.50;10.73;;;;;;;8.28;45.60;97488.50;8313724;28;20225;-83
2021/04/05 01:37:28;;;;;;;18.40;11.23;;;;;;;8.23;45.30;97484.41;8317052;28;20661;-83
2021/04/05 01:41:32;;;;;;;21.43;11.53;;;;;;;8.18;45.27;97468.25;8326473;28;20204;-83
2021/04/05 01:45:35;;;;;;;25.90;12.20;;;;;;;7.96;45.64;97455.47;8333918;28;20212;-83
2021/04/05 01:49:39;;;;;;;22.47;12.07;;;;;;;7.65;46.62;97442.97;8334119;28;20244;-83
2021/04/05 01:53:42;;;;;;;22.37;11.67;;;;;;;7.73;46.54;97447.81;8334475;28;20213;-83
2021/04/05 01:57:46;;;;;;;22.60;12.30;;;;;;;7.98;45.76;97445.91;8363699;28;20212;-83
2021/04/05 02:01:48;;;;;;;20.90;12.13;;;;;;;7.92;45.84;97435.00;8350446;28;20216;-83
2021/04/05 02:05:52;;;;;;;24.23;12.13;;;;;;;7.53;46.62;97421.13;8338417;28;20207;-83
2021/04/05 02:09:55;;;;;;;19.00;11.27;;;;;;;7.52;47.10;97408.31;8338433;28;20580;-83
2021/04/05 02:13:59;;;;;;;21.97;11.20;;;;;;;7.69;46.39;97411.06;8337317;28;20560;-83
2021/04/05 02:18:02;;;;;;;21.97;11.93;;;;;;;7.83;46.09;97388.09;8337860;28;20207;-83
2021/04/05 02:22:05;;;;;;;25.50;12.47;;;;;;;7.88;45.98;97377.59;8336988;28;20212;-81
2021/04/05 02:26:08;;;;;;;21.80;11.43;;;;;;;7.89;45.81;97376.69;8338614;28;20200;-83
2021/04/05 02:30:22;;;;;;;18.03;11.60;;;;;;;7.78;45.50;97369.41;8338976;28;20565;-83
2021/04/05 02:34:24;;;;;;;21.57;11.90;;;;;;;7.81;46.19;97368.44;8337982;28;20208;-84
2021/04/05 02:38:26;;;;;;;22.90;12.73;;;;;;;7.83;45.75;97362.31;8338563;28;20577;-84
2021/04/05 02:42:29;;;;;;;24.33;12.63;;;;;;;7.90;45.87;97364.63;8338777;28;20209;-82
2021/04/05 02:46:34;;;;;;;21.70;12.87;;;;;;;7.89;45.83;97356.06;8339534;28;20200;-82
2021/04/05 02:50:36;;;;;;;21.97;12.80;;;;;;;7.82;45.72;97328.88;8338459;28;20240;-82
2021/04/05 02:54:39;;;;;;;23.30;12.57;;;;;;;7.98;45.60;97327.31;8338899;28;20617;-83
2021/04/05 02:58:42;;;;;;;24.30;12.33;;;;;;;7.75;45.87;97309.41;8309104;28;20671;-81
2021/04/05 03:02:47;;;;;;;22.17;12.23;;;;;;;7.64;46.20;97310.72;8308835;28;20665;-81
2021/04/05 03:06:50;;;;;;;21.40;12.20;;;;;;;7.76;46.06;97296.47;8308928;28;20648;-81
2021/04/05 03:10:52;;;;;;;21.43;13.33;;;;;;;7.71;45.71;97284.69;8306855;28;20578;-81
2021/04/05 03:14:54;;;;;;;25.33;12.77;;;;;;;7.71;46.13;97274.38;8308282;28;20652;-81
2021/04/05 03:18:58;;;;;;;22.60;13.60;;;;;;;7.70;46.15;97263.22;8303817;28;20610;-80
2021/04/05 03:23:00;;;;;;;19.70;12.50;;;;;;;7.80;46.05;97264.47;8303678;28;20208;-81
2021/04/05 03:27:03;;;;;;;19.80;12.97;;;;;;;7.83;45.65;97263.53;8302675;28;20370;-82
2021/04/05 03:31:09;;;;;;;25.30;13.03;;;;;;;7.84;45.92;97260.03;8302299;28;20228;-82
2021/04/05 03:35:18;;;;;;;21.13;12.80;;;;;;;8.08;45.12;97262.44;8302212;28;20549;-81
2021/04/05 03:39:21;;;;;;;22.17;12.53;;;;;;;8.03;44.70;97255.75;8317224;28;20213;-82
2021/04/05 03:43:28;;;;;;;18.60;11.73;;;;;;;8.19;44.67;97244.72;8301491;28;20209;-81
2021/04/05 03:47:34;;;;;;;21.33;11.73;;;;;;;8.21;44.62;97232.59;8302259;28;20527;-84
2021/04/05 03:51:43;;;;;;;19.13;11.60;;;;;;;8.38;44.05;97236.97;8301771;28;20240;-83
2021/04/05 03:55:46;;;;;;;23.27;12.20;;;;;;;8.26;44.48;97229.78;8310043;28;20209;-82
2021/04/05 03:59:51;;;;;;;19.30;11.17;;;;;;;8.37;44.10;97218.03;8334294;28;20205;-82
2021/04/05 04:03:59;;;;;;;17.97;10.27;;;;;;;8.39;43.97;97210.22;8335562;28;20212;-82
2021/04/05 04:08:10;;;;;;;20.17;10.97;;;;;;;8.47;43.92;97205.56;8339834;28;20543;-83
2021/04/05 04:12:13;;;;;;;18.57;11.60;;;;;;;8.34;44.00;97191.56;8338802;28;20216;-82
2021/04/05 04:16:16;;;;;;;19.57;11.00;;;;;;;8.35;44.48;97172.59;8337812;28;20208;-83
2021/04/05 04:20:19;;;;;;;18.40;11.17;;;;;;;8.39;44.08;97151.72;8338149;28;20579;-83
2021/04/05 04:24:22;;;;;;;18.90;10.43;;;;;;;8.06;44.65;97168.81;8347559;28;20199;-83
2021/04/05 04:28:24;;;;;;;21.07;10.77;;;;;;;8.11;44.53;97165.13;8366767;28;20204;-83
2021/04/05 04:32:26;;;;;;;19.03;10.87;;;;;;;8.11;44.53;97154.81;8341680;28;20224;-83
2021/04/05 04:36:29;;;;;;;16.50;10.17;;;;;;;8.29;44.33;97154.84;8341933;28;20205;-84
2021/04/05 04:40:34;;;;;;;16.93;10.20;;;;;;;8.29;44.10;97140.19;8342652;28;20211;-84
2021/04/05 04:44:36;;;;;;;18.27;11.00;;;;;;;8.31;43.98;97134.97;8341578;28;20275;-84
2021/04/05 04:48:38;;;;;;;18.73;10.47;;;;;;;8.11;44.94;97128.16;8342378;28;20243;-84
2021/04/05 04:52:40;;;;;;;22.37;10.03;;;;;;;8.37;44.57;97116.59;8342174;28;20565;-84
2021/04/05 04:56:44;;;;;;;16.00;10.17;;;;;;;8.27;44.79;97107.66;8342007;28;20209;-83
2021/04/05 05:00:47;;;;;;;17.73;9.80;;;;;;;8.31;44.96;97076.47;8342687;28;20201;-81
2021/04/05 05:04:50;;;;;;;19.63;10.07;;;;;;;8.41;44.67;97075.13;8342783;28;20212;-83
2021/04/05 05:08:52;;;;;;;16.97;8.37;;;;;;;8.41;44.72;97072.56;8340786;28;20213;-83
2021/04/05 05:12:57;;;;;;;16.33;9.00;;;;;;;8.64;44.52;97060.22;8339967;28;20228;-83
2021/04/05 05:17:00;;;;;;;17.07;9.17;;;;;;;8.70;44.43;97056.50;8340565;28;20200;-83
2021/04/05 05:21:05;;;;;;;16.40;8.50;;;;;;;8.63;44.83;97050.00;8339604;28;20211;-83
2021/04/05 05:25:10;;;;;;;17.30;9.27;;;;;;;8.73;44.73;97054.59;8341972;28;20189;-83
2021/04/05 05:29:13;;;;;;;17.27;9.13;;;;;;;8.61;44.76;97045.72;8339955;28;20201;-83
2021/04/05 05:33:15;;;;;;;18.80;9.67;;;;;;;8.52;45.02;97028.13;8340720;28;20676;-82
2021/04/05 05:37:20;;;;;;;16.27;8.20;;;;;;;8.70;44.72;97038.41;8341911;28;20204;-82
2021/04/05 05:41:25;;;;;;;17.47;8.80;;;;;;;8.83;44.91;97038.63;8342056;28;20233;-82
2021/04/05 05:45:34;;;;;;;18.73;8.60;;;;;;;8.96;44.86;97037.06;8341589;28;20200;-82
2021/04/05 05:49:37;;;;;;;20.30;8.67;;;;;;;9.14;44.86;97024.94;8341367;28;20240;-83
2021/04/05 05:53:48;;;;;;;18.77;9.13;;;;;;;9.12;45.34;97029.34;8342801;28;20227;-83
2021/04/05 05:57:58;;;;;;;20.07;8.17;;;;;;;9.27;45.26;97017.34;8342790;28;20193;-83
2021/04/05 06:02:07;;;;;;;16.67;8.40;;;;;;;9.10;45.80;97001.03;8342767;28;20227;-83
2021/04/05 06:06:17;;;;;;;17.00;7.77;;;;;;;9.20;45.63;96983.28;8342610;28;20193;-83
2021/04/05 06:10:25;;;;;;;15.10;7.60;;;;;;;9.29;45.77;96994.84;8343650;28;20205;-83
2021/04/05 06:14:33;;;;;;;16.70;7.60;;;;;;;9.97;44.59;96999.66;8345998;28;20224;-83
2021/04/05 06:18:49;;;;;;;20.10;7.60;;;;;;;10.11;44.30;96988.53;8356132;28;20211;-83
2021/04/05 06:23:06;;;;;;;19.40;8.13;;;;;;;10.13;44.67;96986.69;8366635;28;20199;-83
2021/04/05 06:27:12;;;;;;;14.50;7.03;;;;;;;10.04;45.30;96976.88;8358683;28;20185;-83
2021/04/05 06:31:24;;;;;;;18.10;7.20;;;;;;;10.40;44.96;96973.09;8334182;28;20196;-83
2021/04/05 06:35:59;;;;;;;18.67;7.60;;;;;;;10.42;45.06;96968.66;8335229;28;20643;-83
2021/04/05 06:40:05;;;;;;;18.03;6.90;;;;;;;10.55;44.58;96961.81;8334746;28;20203;-83
2021/04/05 06:44:21;;;;;;;16.40;7.00;;;;;;;10.58;44.86;96953.84;8335240;28;20226;-83
2021/04/05 06:49:06;;;;;;;17.20;7.27;;;;;;;10.60;45.01;96954.59;8335695;28;20224;-84
2021/04/05 06:53:40;;;;;;;18.87;7.37;;;;;;;10.79;44.64;96937.94;8343132;28;20216;-83
2021/04/05 06:57:51;;;;;;;17.80;7.07;;;;;;;10.93;44.02;96931.00;8303027;28;20200;-82
2021/04/05 07:02:32;;;;;;;20.80;7.63;;;;;;;11.00;44.18;96935.78;8337044;28;20201;-82
2021/04/05 07:06:47;;;;;;;21.57;7.60;;;;;;;11.04;44.12;96919.09;8334446;28;20212;-83
2021/04/05 07:11:05;;;;;;;20.57;8.10;;;;;;;11.03;43.07;96913.09;8336076;28;20596;-83
2021/04/05 07:15:13;;;;;;;23.43;7.47;;;;;;;11.19;43.26;96912.97;8337799;28;20189;-83
2021/04/05 07:19:26;;;;;;;15.93;6.80;;;;;;;10.89;43.42;96916.56;8338025;28;20200;-83
2021/04/05 07:23:41;;;;;;;22.07;7.73;;;;;;;11.06;42.95;96897.38;8337836;28;20189;-81
2021/04/05 07:27:52;;;;;;;17.30;8.23;;;;;;;11.24;42.51;96900.53;8336720;28;20671;-83
2021/04/05 07:31:59;;;;;;;18.93;7.47;;;;;;;11.14;42.56;96910.66;8337223;28;20232;-82
2021/04/05 07:36:07;;;;;;;16.87;6.90;;;;;;;11.16;41.84;96907.97;8337195;28;20189;-83
2021/04/05 07:40:15;;;;;;;21.70;7.50;;;;;;;10.82;40.91;96906.69;8343374;28;20192;-82
2021/04/05 07:44:34;;;;;;;20.80;7.40;;;;;;;10.98;40.73;96886.66;8342398;28;20209;-82
2021/04/05 07:48:40;;;;;;;13.83;7.17;;;;;;;10.66;40.82;96896.44;8343040;28;20267;-82
2021/04/05 07:52:47;;;;;;;15.50;6.70;;;;;;;10.78;40.47;96897.44;8342699;28;20606;-82
2021/04/05 07:56:55;;;;;;;16.53;7.77;;;;;;;10.69;40.21;96893.66;8343817;28;20680;-83
2021/04/05 08:01:03;;;;;;;25.90;9.17;;;;;;;10.55;40.13;96884.16;8342593;28;20211;-82
2021/04/05 08:05:27;;;;;;;18.00;7.30;;;;;;;10.61;39.82;96890.72;8343402;28;20247;-83
2021/04/05 08:09:34;;;;;;;19.97;8.00;;;;;;;10.86;40.09;96895.19;8343276;28;20211;-82
2021/04/05 08:13:42;;;;;;;17.50;8.57;;;;;;;10.60;39.77;96905.41;8342558;28;20239;-82
2021/04/05 08:17:54;;;;;;;17.80;8.20;;;;;;;10.57;39.89;96900.44;8342647;28;20189;-82
2021/04/05 08:22:01;;;;;;;18.27;8.90;;;;;;;10.59;39.95;96908.94;8342745;28;20652;-82
2021/04/05 08:26:13;;;;;;;16.50;8.50;;;;;;;10.76;39.74;96907.91;8340770;28;20200;-82
2021/04/05 08:30:21;;;;;;;19.90;9.60;;;;;;;10.78;40.02;96908.63;8340170;28;20189;-82
2021/04/05 08:34:37;;;;;;;19.40;10.00;;;;;;;10.85;39.67;96893.53;8340640;28;20217;-81
2021/04/05 08:38:47;;;;;;;16.77;9.67;;;;;;;10.87;40.01;96892.53;8339516;28;20239;-82
2021/04/05 08:42:55;;;;;;;16.47;10.23;;;;;;;11.08;39.69;96876.53;8339639;28;20561;-82
2021/04/05 08:47:00;;;;;;;21.27;10.57;;;;;;;11.02;39.57;96869.97;8341400;28;20188;-82
2021/04/05 08:51:06;;;;;;;19.30;11.00;;;;;;;11.09;39.47;96865.25;8339987;28;20244;-82
2021/04/05 08:55:12;;;;;;;21.63;13.73;;;;;;;11.19;39.29;96871.50;8340481;28;20216;-82
2021/04/05 08:59:20;;;;;;;22.27;15.00;;;;;;;11.02;39.33;96857.03;8341143;28;20262;-82
2021/04/05 09:03:25;;;;;;;25.97;14.07;;;;;;;11.19;39.27;96861.13;8339821;28;20200;-82
2021/04/05 09:07:53;;;;;;;25.97;12.20;;;;;;;11.06;39.32;96850.75;8339860;28;20204;-82
2021/04/05 09:11:56;;;;;;;19.23;11.60;;;;;;;11.34;39.00;96838.56;8339770;28;20219;-82
2021/04/05 09:16:10;;;;;;;25.17;13.33;;;;;;;11.61;38.59;96840.28;8338780;28;20208;-82
2021/04/05 09:20:26;;;;;;;22.33;12.17;;;;;;;11.55;38.42;96844.94;8341587;28;20637;-83
2021/04/05 09:24:45;;;;;;;20.83;13.27;;;;;;;11.57;38.85;96831.06;8370790;28;20173;-83
2021/04/05 09:29:11;;;;;;;21.43;13.30;;;;;;;11.65;38.49;96821.84;8341326;28;20196;-82
2021/04/05 09:33:40;;;;;;;24.10;13.93;;;;;;;11.62;38.05;96805.66;8325017;28;20228;-83
2021/04/05 09:38:08;;;;;;;25.87;13.10;;;;;;;11.93;38.28;96801.84;8337336;28;20208;-83
2021/04/05 09:42:28;;;;;;;21.37;13.80;;;;;;;12.00;37.90;96810.03;8341090;28;20216;-84
2021/04/05 09:46:49;;;;;;;20.33;13.10;;;;;;;12.24;37.17;96815.28;8341011;28;20201;-83
2021/04/05 09:51:20;;;;;;;24.20;14.10;;;;;;;12.00;38.31;96808.28;8339784;28;20688;-81
2021/04/05 09:55:25;;;;;;;24.23;13.00;;;;;;;12.27;38.05;96804.72;8340029;28;20200;-81
2021/04/05 09:59:37;;;;;;;22.33;13.33;;;;;;;12.25;37.85;96793.59;8340050;28;20208;-81
2021/04/05 10:03:43;;;;;;;22.43;13.80;;;;;;;12.07;38.80;96799.13;8340232;28;20208;-81
2021/04/05 10:07:46;;;;;;;22.63;13.47;;;;;;;11.92;39.48;96788.03;8339439;28;20204;-83
2021/04/05 10:11:49;;;;;;;24.43;14.67;;;;;;;11.71;39.86;96787.72;8338718;28;20742;-83
2021/04/05 10:15:57;;;;;;;26.10;15.47;;;;;;;11.66;40.04;96784.59;8338983;28;20185;-83
2021/04/05 10:20:05;;;;;;;24.50;15.13;;;;;;;11.60;40.13;96781.59;8338875;28;20200;-83
2021/04/05 10:24:09;;;;;;;24.10;15.07;;;;;;;11.65;40.13;96767.38;8339334;28;20208;-83
2021/04/05 10:28:15;;;;;;;24.47;14.60;;;;;;;11.74;40.04;96766.72;8338677;28;20203;-81
2021/04/05 10:32:21;;;;;;;22.40;14.90;;;;;;;11.97;39.83;96773.91;8338870;28;20595;-81
2021/04/05 10:36:24;;;;;;;21.40;13.97;;;;;;;11.96;40.00;96772.28;8338834;28;20227;-82
2021/04/05 10:40:28;;;;;;;24.93;15.80;;;;;;;11.63;40.76;96766.66;8338177;28;20204;-82
2021/04/05 10:44:32;;;;;;;29.40;15.97;;;;;;;11.81;40.58;96772.34;8339178;28;20266;-82
2021/04/05 10:48:42;;;;;;;27.03;15.13;;;;;;;12.31;40.11;96756.81;8339037;28;20247;-82
2021/04/05 10:52:44;;;;;;;24.30;14.20;;;;;;;12.49;39.67;96752.94;8307708;28;20216;-82
2021/04/05 10:56:49;;;;;;;27.17;15.20;;;;;;;12.41;39.71;96733.63;8324172;28;20204;-82
2021/04/05 11:00:55;;;;;;;24.63;15.73;;;;;;;12.17;40.33;96731.84;8339567;28;20196;-82
2021/04/05 11:05:04;;;;;;;24.27;15.43;;;;;;;12.26;39.85;96732.94;8339214;28;20192;-82
2021/04/05 11:09:08;;;;;;;27.83;18.50;;;;;;;12.14;40.36;96719.06;8340200;28;20307;-83
2021/04/05 11:13:12;;;;;;;26.43;16.67;;;;;;;12.16;40.61;96716.38;8344727;28;20227;-84
2021/04/05 11:17:15;;;;;;;29.70;16.37;;;;;;;12.10;40.52;96715.03;8350036;28;20207;-83
2021/04/05 11:21:20;;;;;;;30.73;16.17;;;;;;;12.07;40.72;96721.28;8346173;28;20226;-83
2021/04/05 11:25:28;;;;;;;27.30;16.23;;;;;;;11.99;41.13;96707.19;8345907;28;20204;-83
2021/04/05 11:29:32;;;;;;;22.40;14.93;;;;;;;11.78;41.58;96725.84;8343800;28;20195;-82
2021/04/05 11:33:37;;;;;;;23.80;15.53;;;;;;;11.89;41.88;96719.94;8341738;28;20232;-82
2021/04/05 11:37:40;;;;;;;25.07;15.47;;;;;;;11.77;41.67;96708.66;8345865;28;20200;-82
2021/04/05 11:41:45;;;;;;;23.27;14.73;;;;;;;11.55;42.41;96719.66;8348301;28;20200;-82
2021/04/05 11:45:48;;;;;;;25.07;14.60;;;;;;;11.83;42.18;96713.41;8357910;28;20181;-82
2021/04/05 11:49:50;;;;;;;25.63;14.97;;;;;;;11.89;41.97;96705.22;8362596;28;20232;-82
2021/04/05 11:53:57;;;;;;;31.00;17.20;;;;;;;11.77;42.43;96700.88;8345850;28;20679;-82
2021/04/05 11:58:03;;;;;;;22.00;14.07;;;;;;;11.62;42.37;96686.38;8346091;28;20207;-82
2021/04/05 12:02:07;;;;;;;24.47;14.63;;;;;;;11.47;42.53;96678.69;8344243;28;20204;-82
2021/04/05 12:06:11;;;;;;;26.30;13.80;;;;;;;11.25;42.77;96688.88;8345633;28;20657;-83
2021/04/05 12:10:22;;;;;;;27.40;14.73;;;;;;;11.16;42.78;96672.19;8345154;28;20211;-83
2021/04/05 12:14:26;;;;;;;21.70;13.97;;;;;;;11.43;42.75;96679.03;8344813;28;20235;-83
2021/04/05 12:18:30;;;;;;;24.53;13.33;;;;;;;11.19;42.83;96689.28;8345984;28;20204;-83
2021/04/05 12:22:33;;;;;;;24.33;13.90;;;;;;;11.24;42.96;96658.72;8347057;28;20201;-83
2021/04/05 12:26:36;;;;;;;24.23;13.93;;;;;;;11.15;43.14;96668.75;8346913;28;20209;-83
2021/04/05 12:30:39;;;;;;;24.40;13.53;;;;;;;10.95;43.54;96658.91;8346137;28;20197;-82
2021/04/05 12:34:42;;;;;;;25.90;15.27;;;;;;;10.90;44.30;96643.66;8345685;28;20228;-83
2021/04/05 12:38:48;;;;;;;24.10;14.73;;;;;;;10.91;44.80;96657.47;8346687;28;20207;-82
2021/04/05 12:42:53;;;;;;;20.30;13.97;;;;;;;10.75;45.61;96645.50;8346650;28;20218;-82
2021/04/05 12:46:57;;;;;;;24.17;14.43;;;;;;;10.90;46.31;96650.59;8352722;28;20219;-81
2021/04/05 12:51:01;;;;;;;24.97;14.93;;;;;;;10.97;47.63;96636.31;8322038;28;20290;-82
2021/04/05 12:55:08;;;;;;;26.17;15.47;;;;;;;10.63;48.56;96637.72;8319509;28;20228;-82
2021/04/05 12:59:11;;;;;;;24.67;15.23;;;;;;;10.65;49.81;96641.88;8331472;28;20614;-82
2021/04/05 13:03:19;;;;;;;28.67;15.93;;;;;;;10.45;51.08;96642.34;8325647;28;20248;-83
2021/04/05 13:07:26;;;;;;;26.07;16.00;;;;;;;10.45;50.97;96634.56;8314110;28;20197;-83
2021/04/05 13:11:29;;;;;;;29.60;17.70;;;;;;;10.30;52.15;96651.88;8358103;28;20200;-81
2021/04/05 13:15:33;;;;;;;25.53;17.13;;;;;;;10.23;53.18;96635.13;8347684;28;20244;-82
2021/04/05 13:19:43;;;;;;;29.53;17.50;;;;;;;10.11;54.45;96634.13;8326205;28;20210;-82
2021/04/05 13:23:49;;;;;;;30.83;17.77;;;;;;;9.96;55.60;96646.28;8322077;28;20196;-83
2021/04/05 13:27:52;;;;;;;26.90;18.43;;;;;;;10.06;56.13;96638.78;8317698;28;20197;-83
2021/04/05 13:31:57;;;;;;;26.17;17.73;;;;;;;10.03;57.24;96641.53;8325963;28;20577;-83
2021/04/05 13:36:08;;;;;;;23.63;16.57;;;;;;;10.03;57.55;96654.47;8304719;28;20197;-82
2021/04/05 13:40:11;;;;;;;26.53;17.70;;;;;;;9.89;58.12;96655.34;8306259;28;20201;-83
2021/04/05 13:44:16;;;;;;;22.90;17.00;;;;;;;9.62;58.64;96652.72;8340780;28;20192;-83
2021/04/05 13:48:24;;;;;;;27.20;10.30;;;;;;;11.13;62.17;96665.44;8312271;28;20263;-85
2021/04/05 13:52:28;;;;;;;23.43;14.73;;;;;;;11.27;55.26;96669.72;8311198;28;20228;-84
2021/04/05 13:56:34;;;;;;;25.63;17.03;;;;;;;10.33;56.55;96659.50;8309511;28;20230;-83
2021/04/05 14:00:41;;;;;;;22.57;15.77;;;;;;;10.18;57.76;96669.88;8339232;28;20208;-83
2021/04/05 14:04:45;;;;;;;24.43;16.53;;;;;;;10.17;58.40;96662.19;8326439;28;20213;-82
2021/04/05 14:08:48;;;;;;;23.90;16.07;;;;;;;9.87;59.17;96658.03;8328889;28;20200;-83
2021/04/05 14:12:50;;;;;;;22.47;15.67;;;;;;;10.27;58.49;96650.34;8317955;28;20667;-83
2021/04/05 14:16:57;;;;;;;21.83;15.63;;;;;;;10.16;58.55;96642.41;8310644;28;20229;-83
2021/04/05 14:21:00;;;;;;;21.97;15.83;;;;;;;9.93;59.31;96634.34;8324737;28;20207;-83
2021/04/05 14:25:05;;;;;;;21.67;15.03;;;;;;;9.93;59.54;96642.13;8336457;28;20652;-83
2021/04/05 14:29:08;;;;;;;18.93;13.47;;;;;;;9.72;59.71;96671.91;8316055;28;20258;-83
2021/04/05 14:33:15;;;;;;;10.97;7.87;;;;;;;9.29;60.13;96669.31;8322576;28;20221;-83
2021/04/05 14:37:29;;;;;;;9.40;7.63;;;;;;;9.35;59.48;96672.38;8328742;28;20201;-84
2021/04/05 14:41:36;;;;;;;11.77;9.20;;;;;;;9.06;60.34;96684.44;8339078;28;20197;-83
2021/04/05 14:45:40;;;;;;;11.37;9.53;;;;;;;8.59;61.76;96700.94;8333675;28;20205;-83
2021/04/05 14:49:47;;;;;;;6.37;3.63;;;;;;;8.01;59.87;96743.59;8323035;28;20237;-83
2021/04/05 14:53:51;;;;;;;5.30;2.57;;;;;;;7.42;60.00;96763.84;8313071;28;20291;-83
2021/04/05 14:57:53;;;;;;;2.93;1.40;;;;;;;7.19;60.56;96763.25;8313097;28;20207;-83
2021/04/05 15:02:03;;;;;;;1.23;1.10;;;;;;;7.19;59.19;96783.03;8318225;28;20217;-82
2021/04/05 15:06:09;;;;;;;1.10;1.00;;;;;;;7.08;59.93;96786.13;8315115;28;20232;-82
2021/04/05 15:10:17;;;;;;;0.80;0.80;;;;;;;7.20;58.89;96797.59;8313957;28;20190;-82
2021/04/05 15:14:20;;;;;;;1.03;0.97;;;;;;;7.44;59.52;96806.66;8304204;28;20248;-83
2021/04/05 15:18:23;;;;;;;1.83;1.60;;;;;;;7.11;60.03;96811.72;8303872;28;20201;-84
2021/04/05 15:22:26;;;;;;;1.43;1.10;;;;;;;7.15;59.56;96808.09;8307541;28;20216;-81
2021/04/05 15:26:31;;;;;;;1.27;0.93;;;;;;;7.12;58.95;96812.56;8303430;28;20225;-82
2021/04/05 15:30:40;;;;;;;1.53;1.07;;;;;;;6.71;59.53;96813.63;8304608;28;20574;-83
2021/04/05 15:34:44;;;;;;;1.00;0.90;;;;;;;6.97;58.96;96817.56;8319521;28;20575;-83
2021/04/05 15:38:46;;;;;;;1.13;0.87;;;;;;;7.27;57.79;96836.72;8327613;28;20575;-83
2021/04/05 15:42:50;;;;;;;1.93;1.50;;;;;;;6.95;58.46;96845.13;8312466;28;20202;-84
2021/04/05 15:46:57;;;;;;;2.60;1.90;;;;;;;6.67;59.26;96837.84;8327163;28;20207;-83
2021/04/05 15:51:01;;;;;;;1.63;1.10;;;;;;;6.97;58.45;96861.31;8316115;28;20225;-84
2021/04/05 15:55:05;;;;;;;2.40;1.93;;;;;;;6.89;58.69;96870.28;8319012;28;20221;-84
2021/04/05 15:59:11;;;;;;;1.13;0.90;;;;;;;6.85;58.71;96877.31;8323668;28;20208;-84
2021/04/05 16:03:18;;;;;;;1.10;1.00;;;;;;;6.89;58.67;96878.84;8337346;28;20193;-83
2021/04/05 16:07:25;;;;;;;1.37;0.80;;;;;;;7.07;58.29;96881.47;8330248;28;20189;-83
2021/04/05 16:11:29;;;;;;;1.40;0.90;;;;;;;6.76;59.65;96908.63;8319106;28;20219;-84
2021/04/05 16:15:34;;;;;;;1.97;0.90;;;;;;;6.62;59.48;96922.94;8330798;28;20220;-84
2021/04/05 16:19:49;;;;;;;1.23;0.50;;;;;;;5.87;59.28;96929.59;8315813;28;20200;-83
2021/04/05 16:23:55;;;;;;;0.53;0.40;;;;;;;5.82;59.19;96954.66;8332946;28;20672;-84
2021/04/05 16:28:01;;;;;;;0.77;0.60;;;;;;;5.51;59.68;96961.94;8316455;28;20566;-83
2021/04/05 16:32:08;;;;;;;1.27;1.00;;;;;;;5.63;59.37;96992.25;8366039;28;20203;-83
2021/04/05 16:36:11;;;;;;;1.10;0.60;;;;;;;5.36;59.14;97002.72;8321545;28;20221;-83
2021/04/05 16:40:19;;;;;;;2.50;1.27;;;;;;;5.76;58.55;96997.75;8322412;28;20193;-83
2021/04/05 16:44:26;;;;;;;1.60;1.50;;;;;;;5.78;59.05;96998.53;8331465;28;20217;-83
2021/04/05 16:48:30;;;;;;;2.63;1.70;;;;;;;5.64;57.62;96996.50;8330698;28;20221;-83
2021/04/05 16:52:34;;;;;;;12.40;9.40;;;;;;;5.68;57.54;97022.00;8329627;28;20215;-83
2021/04/05 16:56:37;;;;;;;11.63;9.60;;;;;;;5.35;58.47;97013.06;8333896;28;20200;-82
2021/04/05 17:00:43;;;;;;;2.43;2.03;;;;;;;5.28;58.15;97027.88;8316676;28;20661;-83
2021/04/05 17:04:46;;;;;;;4.00;2.90;;;;;;;5.26;57.70;97033.06;8334781;28;20213;-83
2021/04/05 17:08:54;;;;;;;7.27;4.23;;;;;;;5.44;57.69;97034.06;8321316;28;20196;-83
2021/04/05 17:12:57;;;;;;;1.87;1.30;;;;;;;5.53;57.72;97043.16;8328173;28;20221;-84
2021/04/05 17:17:02;;;;;;;2.83;1.03;;;;;;;5.53;56.90;97032.06;8326975;28;20232;-84
2021/04/05 17:21:09;;;;;;;0.73;0.73;;;;;;;5.40;56.60;97049.66;8315994;28;20203;-84
2021/04/05 17:25:13;;;;;;;1.13;0.93;;;;;;;5.17;56.51;97045.41;8325769;28;20235;-84
2021/04/05 17:29:22;;;;;;;1.80;0.80;;;;;;;4.97;56.43;97061.53;8322518;28;20573;-83
2021/04/05 17:33:32;;;;;;;3.27;0.80;;;;;;;5.34;54.54;97063.56;8324440;28;20217;-83
2021/04/05 17:37:41;;;;;;;2.00;1.33;;;;;;;5.19;54.78;97051.31;8331550;28;20216;-83
2021/04/05 17:41:48;;;;;;;2.03;1.30;;;;;;;5.55;53.46;97076.50;8331043;28;20195;-83
2021/04/05 17:45:52;;;;;;;3.17;1.50;;;;;;;5.81;52.77;97066.03;8318459;28;20192;-82
2021/04/05 17:50:07;;;;;;;2.87;1.40;;;;;;;5.79;51.95;97077.28;8315497;28;20220;-83
2021/04/05 17:54:16;;;;;;;2.10;1.50;;;;;;;5.70;53.49;97081.03;8327222;28;21566;-83
2021/04/05 17:58:25;;;;;;;3.20;1.67;;;;;;;6.06;52.11;97095.94;8319245;28;20201;-83
2021/04/05 18:02:38;;;;;;;2.77;1.13;;;;;;;6.01;51.63;97103.81;8321801;28;20852;-83
2021/04/05 18:06:45;;;;;;;3.00;1.20;;;;;;;5.64;51.64;97117.25;8317862;28;20197;-82
2021/04/05 18:11:13;;;;;;;3.60;1.20;;;;;;;5.72;52.09;97130.63;8324305;28;20200;-82
2021/04/05 18:15:22;;;;;;;4.40;1.63;;;;;;;5.88;51.88;97133.44;8315136;28;20312;-83
2021/04/05 18:19:34;;;;;;;2.93;1.63;;;;;;;5.57;52.28;97154.31;8307432;28;20201;-82
2021/04/05 18:23:53;;;;;;;3.30;1.97;;;;;;;5.82;52.14;97149.09;8307576;28;20193;-83
2021/04/05 18:28:14;;;;;;;3.60;1.63;;;;;;;5.84;51.48;97155.00;8306016;28;20198;-82
2021/04/05 18:32:26;;;;;;;4.50;2.40;;;;;;;5.92;52.61;97167.56;8334905;28;20215;-83
2021/04/05 18:36:36;;;;;;;3.53;2.20;;;;;;;6.40;50.34;97176.88;8307385;28;20444;-84
2021/04/05 18:40:41;;;;;;;4.10;2.40;;;;;;;5.96;51.18;97184.56;8319178;28;20197;-83
2021/04/05 18:44:46;;;;;;;3.47;2.30;;;;;;;5.82;52.13;97198.75;8316099;28;20192;-83
2021/04/05 18:48:57;;;;;;;2.53;1.77;;;;;;;5.70;52.52;97211.22;8320524;28;20579;-84
2021/04/05 18:53:09;;;;;;;3.80;2.50;;;;;;;5.63;52.28;97197.75;8311857;28;20689;-85
2021/04/05 18:57:14;;;;;;;7.17;2.53;;;;;;;5.62;52.58;97209.78;8355330;28;20204;-85
2021/04/05 19:01:18;;;;;;;4.63;2.00;;;;;;;5.59;51.65;97225.28;8343132;28;20238;-85
2021/04/05 19:05:26;;;;;;;4.03;1.73;;;;;;;5.63;51.65;97224.28;8326952;28;20212;-85
2021/04/05 19:09:30;;;;;;;4.10;1.80;;;;;;;5.26;53.00;97228.16;8346494;28;20240;-85
2021/04/05 19:13:43;;;;;;;21.07;2.23;;;;;;;8.17;66.06;97242.22;8321870;28;20228;-86